createdAt,value
2018-08-17T00:02:22.983Z,14.40
2018-08-17T00:04:51.524Z,14.40
2018-08-17T00:07:20.089Z,14.40
2018-08-17T00:09:48.642Z,14.40
2018-08-17T00:12:17.123Z,14.40
2018-08-17T00:14:45.669Z,14.40
2018-08-17T00:17:14.241Z,14.40
2018-08-17T00:19:42.795Z,14.30
2018-08-17T00:22:11.362Z,14.30
2018-08-17T00:24:39.836Z,14.30
2018-08-17T00:27:08.382Z,14.30
2018-08-17T00:29:36.895Z,14.30
2018-08-17T00:32:05.472Z,14.20
2018-08-17T00:34:34.029Z,14.20
2018-08-17T00:37:02.573Z,14.10
2018-08-17T00:39:31.085Z,14.10
2018-08-17T00:41:59.652Z,14.10
2018-08-17T00:44:28.189Z,14.20
2018-08-17T00:46:56.707Z,14.20
2018-08-17T00:49:25.225Z,14.20
2018-08-17T00:51:53.712Z,14.20
2018-08-17T00:54:22.232Z,14.30
2018-08-17T00:56:50.776Z,14.30
2018-08-17T00:59:19.281Z,14.30
2018-08-17T01:01:47.856Z,14.30
2018-08-17T01:04:16.348Z,14.40
2018-08-17T01:06:44.879Z,14.50
2018-08-17T01:09:13.416Z,14.60
2018-08-17T01:11:41.932Z,14.70
2018-08-17T01:14:10.487Z,14.80
2018-08-17T01:16:39.274Z,14.80
2018-08-17T01:19:07.801Z,14.90
2018-08-17T01:21:36.320Z,14.90
2018-08-17T01:24:04.876Z,15.00
2018-08-17T01:26:33.453Z,15.10
2018-08-17T01:29:01.928Z,15.20
2018-08-17T01:31:30.424Z,15.30
2018-08-17T01:33:58.955Z,15.40
2018-08-17T01:36:27.448Z,15.40
2018-08-17T01:38:55.982Z,15.40
2018-08-17T01:41:24.469Z,15.50
2018-08-17T01:43:52.992Z,15.50
2018-08-17T01:46:21.496Z,15.50
2018-08-17T01:48:50.025Z,15.60
2018-08-17T01:51:18.520Z,15.60
2018-08-17T01:53:47.072Z,15.60
2018-08-17T01:56:15.583Z,15.50
2018-08-17T01:58:44.123Z,15.50
2018-08-17T02:01:12.656Z,15.50
2018-08-17T02:03:41.147Z,15.50
2018-08-17T02:06:09.676Z,15.50
2018-08-17T02:08:38.244Z,15.50
2018-08-17T02:11:06.765Z,15.50
2018-08-17T02:13:35.255Z,15.50
2018-08-17T02:16:03.875Z,15.50
2018-08-17T02:18:32.395Z,15.50
2018-08-17T02:21:00.920Z,15.50
2018-08-17T02:23:29.396Z,15.50
2018-08-17T02:25:57.997Z,15.50
2018-08-17T02:28:26.581Z,15.40
2018-08-17T02:30:55.112Z,15.30
2018-08-17T02:33:23.582Z,15.30
2018-08-17T02:35:52.090Z,15.30
2018-08-17T02:38:20.567Z,15.30
2018-08-17T02:40:49.089Z,15.30
2018-08-17T02:43:17.653Z,15.30
2018-08-17T02:45:46.141Z,15.30
2018-08-17T02:48:14.616Z,15.30
2018-08-17T02:50:43.145Z,15.30
2018-08-17T02:53:11.707Z,15.30
2018-08-17T02:55:40.223Z,15.30
2018-08-17T02:58:08.769Z,15.20
2018-08-17T03:00:37.264Z,15.20
2018-08-17T03:03:05.838Z,15.20
2018-08-17T03:05:34.340Z,15.10
2018-08-17T03:08:02.860Z,15.10
2018-08-17T03:10:31.346Z,15.10
2018-08-17T03:12:59.876Z,15.10
2018-08-17T03:15:28.359Z,15.10
2018-08-17T03:17:57.027Z,15.00
2018-08-17T03:20:25.670Z,15.10
2018-08-17T03:22:54.215Z,15.00
2018-08-17T03:25:22.728Z,15.00
2018-08-17T03:27:51.212Z,15.00
2018-08-17T03:30:19.727Z,15.00
2018-08-17T03:32:48.202Z,15.00
2018-08-17T03:35:16.714Z,14.90
2018-08-17T03:37:45.239Z,14.90
2018-08-17T03:40:13.799Z,14.80
2018-08-17T03:42:42.280Z,14.90
2018-08-17T03:45:11.411Z,14.90
2018-08-17T03:47:39.959Z,14.90
2018-08-17T03:50:08.795Z,14.90
2018-08-17T03:52:37.371Z,14.90
2018-08-17T03:55:05.924Z,14.90
2018-08-17T03:57:34.465Z,14.90
2018-08-17T04:00:08.509Z,14.90
2018-08-17T04:02:41.086Z,14.90
2018-08-17T04:05:09.637Z,14.90
2018-08-17T04:07:40.301Z,14.90
2018-08-17T04:10:08.909Z,14.90
2018-08-17T04:12:37.441Z,14.90
2018-08-17T04:15:06.834Z,14.90
2018-08-17T04:17:35.400Z,14.90
2018-08-17T04:20:04.028Z,14.90
2018-08-17T04:22:32.630Z,14.90
2018-08-17T04:25:01.420Z,14.90
2018-08-17T04:27:29.961Z,14.90
2018-08-17T04:29:58.488Z,14.90
2018-08-17T04:32:27.076Z,14.90
2018-08-17T04:34:55.563Z,14.90
2018-08-17T04:37:24.132Z,14.90
2018-08-17T04:39:52.633Z,14.80
2018-08-17T04:42:21.221Z,14.80
2018-08-17T04:44:49.741Z,14.80
2018-08-17T04:47:18.317Z,14.80
2018-08-17T04:49:46.874Z,14.80
2018-08-17T04:52:15.443Z,14.90
2018-08-17T04:54:44.034Z,14.90
2018-08-17T04:57:12.721Z,14.90
2018-08-17T04:59:41.260Z,14.90
2018-08-17T05:02:09.850Z,14.90
2018-08-17T05:04:38.388Z,14.90
2018-08-17T05:07:06.964Z,14.90
2018-08-17T05:09:35.479Z,14.80
2018-08-17T05:12:04.069Z,14.80
2018-08-17T05:14:32.570Z,14.80
2018-08-17T05:17:01.157Z,14.80
2018-08-17T05:19:29.699Z,14.80
2018-08-17T05:21:58.224Z,14.80
2018-08-17T05:24:26.786Z,14.80
2018-08-17T05:26:55.283Z,14.80
2018-08-17T05:29:23.789Z,14.80
2018-08-17T05:31:52.389Z,14.90
2018-08-17T05:34:20.913Z,14.90
2018-08-17T05:36:49.430Z,14.90
2018-08-17T05:39:17.993Z,14.90
2018-08-17T05:41:46.563Z,14.90
2018-08-17T05:44:15.161Z,15.00
2018-08-17T05:46:43.681Z,14.90
2018-08-17T05:49:12.224Z,14.90
2018-08-17T05:51:40.733Z,14.90
2018-08-17T05:54:09.325Z,14.90
2018-08-17T05:56:37.930Z,15.00
2018-08-17T05:59:06.588Z,15.00
2018-08-17T06:01:35.101Z,15.00
2018-08-17T06:04:03.678Z,15.00
2018-08-17T06:06:32.192Z,15.00
2018-08-17T06:09:00.753Z,15.00
2018-08-17T06:11:29.362Z,15.00
2018-08-17T06:13:58.736Z,15.10
2018-08-17T06:16:27.273Z,15.10
2018-08-17T06:18:55.783Z,15.10
2018-08-17T06:21:24.324Z,15.10
2018-08-17T06:23:53.048Z,15.10
2018-08-17T06:26:21.556Z,15.20
2018-08-17T06:28:50.168Z,15.20
2018-08-17T06:31:18.732Z,15.20
2018-08-17T06:33:47.296Z,15.30
2018-08-17T06:36:15.860Z,15.30
2018-08-17T06:38:44.389Z,15.20
2018-08-17T06:41:12.905Z,15.20
2018-08-17T06:43:41.472Z,15.30
2018-08-17T06:46:10.081Z,15.30
2018-08-17T06:48:38.593Z,15.40
2018-08-17T06:51:07.267Z,15.40
2018-08-17T06:53:35.695Z,15.50
2018-08-17T06:56:04.291Z,15.50
2018-08-17T06:58:32.900Z,15.60
2018-08-17T07:01:01.464Z,15.50
2018-08-17T07:03:30.255Z,15.60
2018-08-17T07:05:59.045Z,15.60
2018-08-17T07:08:27.565Z,15.70
2018-08-17T07:10:56.108Z,15.90
2018-08-17T07:13:24.628Z,16.00
2018-08-17T07:15:53.225Z,16.10
2018-08-17T07:18:21.741Z,16.20
2018-08-17T07:20:50.279Z,16.20
2018-08-17T07:23:18.775Z,16.20
2018-08-17T07:25:47.331Z,16.20
2018-08-17T07:28:15.956Z,16.20
2018-08-17T07:30:44.439Z,16.20
2018-08-17T07:33:12.985Z,16.20
2018-08-17T07:35:41.524Z,16.30
2018-08-17T07:38:10.058Z,16.30
2018-08-17T07:40:38.581Z,16.40
2018-08-17T07:43:07.665Z,16.40
2018-08-17T07:45:36.178Z,16.50
2018-08-17T07:48:04.904Z,16.50
2018-08-17T07:50:33.340Z,16.50
2018-08-17T07:53:01.928Z,16.50
2018-08-17T07:55:30.496Z,16.50
2018-08-17T07:57:59.052Z,16.50
2018-08-17T08:00:27.591Z,16.60
2018-08-17T08:02:56.092Z,16.60
2018-08-17T08:05:24.700Z,16.60
2018-08-17T08:07:53.188Z,16.60
2018-08-17T08:10:21.741Z,16.60
2018-08-17T08:12:50.285Z,16.60
2018-08-17T08:15:18.815Z,16.70
2018-08-17T08:17:47.325Z,16.70
2018-08-17T08:20:27.932Z,16.80
2018-08-17T08:23:07.652Z,16.90
2018-08-17T08:25:36.199Z,17.00
2018-08-17T08:28:04.761Z,17.10
2018-08-17T08:30:33.528Z,17.10
2018-08-17T08:33:02.229Z,17.20
2018-08-17T08:35:31.019Z,17.30
2018-08-17T08:37:59.814Z,17.30
2018-08-17T08:40:28.440Z,17.40
2018-08-17T08:42:56.998Z,17.30
2018-08-17T08:45:25.636Z,17.40
2018-08-17T08:47:54.161Z,17.50
2018-08-17T08:50:22.725Z,17.50
2018-08-17T08:52:51.372Z,17.60
2018-08-17T08:55:20.227Z,17.60
2018-08-17T08:57:48.758Z,17.70
2018-08-17T09:00:17.271Z,17.80
2018-08-17T09:02:45.827Z,17.90
2018-08-17T09:05:14.369Z,17.90
2018-08-17T09:07:42.933Z,18.00
2018-08-17T09:10:11.709Z,18.10
2018-08-17T09:12:40.251Z,18.20
2018-08-17T09:15:10.406Z,18.30
2018-08-17T09:17:39.404Z,18.40
2018-08-17T09:20:09.383Z,18.40
2018-08-17T09:22:37.984Z,18.50
2018-08-17T09:25:06.600Z,18.60
2018-08-17T09:27:35.181Z,18.80
2018-08-17T09:30:04.227Z,18.80
2018-08-17T09:32:32.728Z,18.90
2018-08-17T09:35:01.256Z,19.00
2018-08-17T09:37:29.737Z,19.00
2018-08-17T09:39:58.258Z,19.10
2018-08-17T09:42:26.791Z,19.20
2018-08-17T09:44:55.405Z,19.20
2018-08-17T09:47:23.933Z,19.30
2018-08-17T09:49:52.478Z,19.40
2018-08-17T09:52:21.086Z,19.50
2018-08-17T09:54:49.663Z,19.60
2018-08-17T09:57:18.184Z,19.60
2018-08-17T09:59:46.711Z,19.60
2018-08-17T10:02:20.524Z,19.50
2018-08-17T10:04:54.349Z,19.60
2018-08-17T10:07:28.884Z,19.60
2018-08-17T10:10:02.644Z,19.60
2018-08-17T10:12:31.140Z,19.60
2018-08-17T10:14:59.679Z,19.60
2018-08-17T10:17:28.187Z,19.70
2018-08-17T10:19:56.694Z,19.70
2018-08-17T10:22:25.219Z,19.70
2018-08-17T10:25:01.095Z,19.70
2018-08-17T10:27:29.625Z,19.80
2018-08-17T10:30:05.426Z,19.90
2018-08-17T10:32:38.660Z,19.90
2018-08-17T10:35:09.804Z,19.90
2018-08-17T10:37:38.338Z,20.00
2018-08-17T10:40:06.912Z,20.30
2018-08-17T10:42:35.396Z,20.60
2018-08-17T10:45:04.000Z,20.70
2018-08-17T10:47:32.508Z,20.70
2018-08-17T10:50:04.487Z,20.70
2018-08-17T10:52:33.010Z,20.70
2018-08-17T10:55:01.529Z,20.80
2018-08-17T10:57:30.116Z,20.80
2018-08-17T10:59:58.566Z,21.00
2018-08-17T11:02:27.093Z,21.10
2018-08-17T11:04:55.687Z,21.20
2018-08-17T11:07:29.356Z,21.30
2018-08-17T11:09:57.846Z,21.30
2018-08-17T11:12:26.404Z,21.30
2018-08-17T11:14:54.929Z,21.30
2018-08-17T11:17:23.484Z,21.20
2018-08-17T11:19:52.030Z,21.30
2018-08-17T11:22:21.320Z,21.50
2018-08-17T11:24:49.800Z,21.60
2018-08-17T11:27:18.322Z,21.70
2018-08-17T11:29:46.936Z,21.70
2018-08-17T11:32:15.473Z,21.70
2018-08-17T11:34:44.186Z,21.80
2018-08-17T11:37:12.751Z,21.90
2018-08-17T11:39:46.380Z,21.90
2018-08-17T11:42:14.880Z,21.90
2018-08-17T11:44:43.415Z,22.00
2018-08-17T11:47:12.008Z,22.00
2018-08-17T11:49:40.560Z,21.90
2018-08-17T11:52:09.097Z,21.90
2018-08-17T11:54:37.567Z,21.90
2018-08-17T11:57:06.152Z,21.80
2018-08-17T11:59:34.741Z,21.80
2018-08-17T12:02:03.390Z,21.80
2018-08-17T12:04:31.838Z,21.80
2018-08-17T12:07:00.376Z,21.80
2018-08-17T12:09:28.900Z,21.80
2018-08-17T12:11:57.493Z,22.00
2018-08-17T12:14:26.028Z,22.20
2018-08-17T12:16:54.581Z,22.30
2018-08-17T12:19:23.113Z,22.60
2018-08-17T12:21:51.616Z,22.90
2018-08-17T12:24:20.142Z,23.00
2018-08-17T12:26:52.543Z,23.00
2018-08-17T12:29:21.039Z,23.00
2018-08-17T12:31:49.900Z,22.80
2018-08-17T12:34:18.698Z,22.80
2018-08-17T12:36:47.184Z,22.90
2018-08-17T12:39:15.728Z,22.80
2018-08-17T12:41:44.261Z,22.80
2018-08-17T12:44:12.861Z,22.80
2018-08-17T12:46:41.465Z,22.90
2018-08-17T12:49:10.028Z,23.20
2018-08-17T12:51:38.659Z,23.50
2018-08-17T12:54:07.372Z,23.60
2018-08-17T12:56:35.884Z,23.50
2018-08-17T12:59:04.448Z,23.20
2018-08-17T13:01:32.971Z,23.10
2018-08-17T13:04:01.625Z,22.90
2018-08-17T13:06:30.145Z,22.70
2018-08-17T13:08:58.678Z,22.60
2018-08-17T13:11:27.248Z,22.40
2018-08-17T13:13:59.233Z,22.30
2018-08-17T13:16:27.781Z,22.20
2018-08-17T13:18:56.306Z,22.20
2018-08-17T13:21:24.791Z,22.10
2018-08-17T13:23:53.308Z,21.90
2018-08-17T13:26:22.822Z,21.80
2018-08-17T13:28:51.302Z,21.90
2018-08-17T13:31:19.837Z,22.20
2018-08-17T13:33:48.662Z,22.60
2018-08-17T13:36:17.383Z,22.90
2018-08-17T13:38:45.872Z,23.00
2018-08-17T13:41:14.461Z,23.00
2018-08-17T13:43:43.016Z,23.00
2018-08-17T13:46:11.588Z,23.00
2018-08-17T13:48:40.123Z,23.10
2018-08-17T13:51:08.856Z,23.50
2018-08-17T13:53:37.413Z,23.60
2018-08-17T13:56:06.369Z,23.80
2018-08-17T13:58:34.903Z,23.90
2018-08-17T14:01:03.436Z,23.90
2018-08-17T14:03:33.264Z,23.90
2018-08-17T14:06:01.939Z,23.60
2018-08-17T14:08:30.479Z,23.60
2018-08-17T14:10:58.997Z,23.80
2018-08-17T14:13:27.541Z,23.90
2018-08-17T14:15:56.145Z,23.90
2018-08-17T14:18:24.715Z,23.90
2018-08-17T14:20:53.215Z,23.90
2018-08-17T14:23:21.736Z,23.80
2018-08-17T14:25:50.266Z,23.90
2018-08-17T14:28:18.763Z,24.00
2018-08-17T14:30:47.279Z,24.20
2018-08-17T14:33:15.784Z,24.20
2018-08-17T14:35:44.326Z,24.20
2018-08-17T14:38:13.016Z,24.10
2018-08-17T14:40:41.516Z,24.00
2018-08-17T14:43:10.019Z,24.10
2018-08-17T14:45:38.772Z,24.20
2018-08-17T14:48:07.399Z,24.30
2018-08-17T14:50:35.925Z,24.30
2018-08-17T14:53:04.463Z,24.50
2018-08-17T14:55:32.964Z,24.70
2018-08-17T14:58:01.470Z,24.60
2018-08-17T15:00:29.968Z,24.30
2018-08-17T15:02:58.493Z,24.30
2018-08-17T15:05:26.977Z,24.50
2018-08-17T15:07:55.513Z,24.60
2018-08-17T15:10:24.048Z,24.80
2018-08-17T15:12:52.669Z,24.80
2018-08-17T15:15:21.151Z,24.70
2018-08-17T15:17:49.698Z,24.80
2018-08-17T15:20:18.253Z,24.80
2018-08-17T15:22:46.762Z,24.70
2018-08-17T15:25:15.301Z,24.70
2018-08-17T15:27:43.846Z,24.80
2018-08-17T15:30:12.947Z,24.80
2018-08-17T15:32:42.365Z,24.80
2018-08-17T15:35:11.603Z,24.80
2018-08-17T15:37:41.153Z,24.60
2018-08-17T15:40:11.500Z,24.50
2018-08-17T15:42:40.381Z,24.40
2018-08-17T15:45:09.624Z,24.30
2018-08-17T15:47:38.164Z,24.30
2018-08-17T15:50:12.058Z,24.20
2018-08-17T15:52:41.052Z,24.10
2018-08-17T15:55:09.553Z,23.90
2018-08-17T15:57:38.197Z,23.70
2018-08-17T16:00:08.650Z,23.60
2018-08-17T16:02:37.220Z,23.40
2018-08-17T16:05:05.893Z,23.00
2018-08-17T16:07:34.436Z,22.60
2018-08-17T16:10:03.092Z,22.30
2018-08-17T16:12:31.648Z,22.20
2018-08-17T16:15:00.965Z,22.10
2018-08-17T16:17:29.509Z,22.00
2018-08-17T16:19:58.041Z,21.80
2018-08-17T16:22:26.547Z,21.70
2018-08-17T16:24:55.088Z,21.60
2018-08-17T16:27:23.853Z,21.60
2018-08-17T16:29:52.514Z,21.60
2018-08-17T16:32:21.052Z,21.60
2018-08-17T16:34:49.625Z,21.60
2018-08-17T16:37:18.254Z,21.50
2018-08-17T16:39:51.980Z,21.50
2018-08-17T16:42:25.827Z,21.50
2018-08-17T16:44:54.713Z,21.50
2018-08-17T16:47:23.171Z,21.50
2018-08-17T16:49:55.195Z,21.50
2018-08-17T16:52:23.942Z,21.40
2018-08-17T16:54:52.564Z,21.20
2018-08-17T16:57:21.182Z,21.00
2018-08-17T16:59:49.731Z,20.80
2018-08-17T17:02:18.365Z,20.70
2018-08-17T17:04:46.825Z,20.50
2018-08-17T17:07:15.351Z,20.40
2018-08-17T17:09:43.866Z,20.40
2018-08-17T17:12:17.696Z,20.50
2018-08-17T17:14:46.494Z,20.40
2018-08-17T17:17:15.393Z,20.40
2018-08-17T17:19:43.869Z,20.80
2018-08-17T17:22:12.360Z,21.40
2018-08-17T17:24:40.912Z,22.10
2018-08-17T17:27:09.360Z,22.60
2018-08-17T17:29:38.318Z,23.00
2018-08-17T17:32:07.242Z,23.30
2018-08-17T17:34:35.741Z,23.50
2018-08-17T17:37:04.288Z,23.60
2018-08-17T17:39:32.729Z,23.90
2018-08-17T17:42:01.220Z,24.10
2018-08-17T17:44:29.747Z,24.20
2018-08-17T17:46:58.245Z,24.20
2018-08-17T17:49:26.712Z,24.20
2018-08-17T17:51:55.225Z,24.00
2018-08-17T17:54:25.041Z,23.80
2018-08-17T17:56:59.926Z,23.60
2018-08-17T17:59:28.384Z,23.40
2018-08-17T18:01:56.892Z,23.40
2018-08-17T18:04:29.062Z,23.20
2018-08-17T18:06:57.556Z,23.10
2018-08-17T18:09:26.101Z,23.00
2018-08-17T18:11:54.588Z,22.80
2018-08-17T18:14:23.036Z,22.70
2018-08-17T18:16:51.532Z,22.40
2018-08-17T18:19:20.057Z,21.70
2018-08-17T18:21:48.535Z,21.10
2018-08-17T18:24:17.052Z,20.60
2018-08-17T18:26:47.724Z,20.20
2018-08-17T18:29:16.500Z,19.80
2018-08-17T18:31:45.079Z,19.50
2018-08-17T18:34:13.783Z,19.20
2018-08-17T18:36:42.333Z,18.90
2018-08-17T18:39:12.632Z,18.70
2018-08-17T18:41:41.284Z,18.50
2018-08-17T18:44:09.984Z,18.30
2018-08-17T18:46:38.600Z,18.20
2018-08-17T18:49:07.100Z,18.00
2018-08-17T18:51:35.840Z,17.80
2018-08-17T18:54:04.330Z,17.60
2018-08-17T18:56:32.846Z,17.50
2018-08-17T18:59:01.383Z,17.40
2018-08-17T19:01:29.898Z,17.30
2018-08-17T19:03:58.380Z,17.20
2018-08-17T19:06:26.890Z,17.10
2018-08-17T19:08:55.356Z,17.00
2018-08-17T19:11:23.851Z,16.80
2018-08-17T19:13:52.312Z,16.70
2018-08-17T19:16:20.822Z,16.60
2018-08-17T19:18:49.352Z,16.50
2018-08-17T19:21:17.845Z,16.40
2018-08-17T19:23:46.380Z,16.30
2018-08-17T19:26:14.846Z,16.20
2018-08-17T19:28:43.372Z,16.20
2018-08-17T19:31:11.868Z,16.10
2018-08-17T19:33:40.363Z,16.00
2018-08-17T19:36:08.861Z,15.90
2018-08-17T19:38:41.529Z,15.80
2018-08-17T19:41:10.171Z,15.80
2018-08-17T19:43:39.093Z,15.70
2018-08-17T19:46:07.781Z,15.70
2018-08-17T19:48:36.188Z,15.60
2018-08-17T19:51:10.073Z,15.60
2018-08-17T19:53:38.528Z,15.50
2018-08-17T19:56:07.053Z,15.40
2018-08-17T19:58:35.489Z,15.40
2018-08-17T20:01:03.997Z,15.30
2018-08-17T20:03:32.973Z,15.30
2018-08-17T20:06:01.568Z,15.20
2018-08-17T20:08:30.091Z,15.10
2018-08-17T20:10:58.682Z,15.00
2018-08-17T20:13:27.138Z,15.00
2018-08-17T20:15:55.689Z,14.90
2018-08-17T20:18:24.205Z,14.80
2018-08-17T20:20:52.715Z,14.70
2018-08-17T20:23:21.248Z,14.70
2018-08-17T20:25:49.908Z,14.70
2018-08-17T20:28:18.257Z,14.60
2018-08-17T20:30:46.769Z,14.60
2018-08-17T20:33:20.500Z,14.50
2018-08-17T20:35:49.258Z,14.50
2018-08-17T20:38:17.704Z,14.50
2018-08-17T20:40:46.228Z,14.40
2018-08-17T20:43:14.702Z,14.40
2018-08-17T20:45:43.186Z,14.40
2018-08-17T20:48:11.704Z,14.40
2018-08-17T20:50:40.215Z,14.40
2018-08-17T20:53:08.673Z,14.30
2018-08-17T20:55:37.141Z,14.30
2018-08-17T20:58:05.755Z,14.20
2018-08-17T21:00:34.326Z,14.20
2018-08-17T21:03:02.796Z,14.10
2018-08-17T21:05:31.268Z,14.00
2018-08-17T21:07:59.773Z,13.90
2018-08-17T21:10:28.312Z,13.90
2018-08-17T21:12:56.850Z,13.80
2018-08-17T21:15:25.341Z,13.80
2018-08-17T21:17:53.832Z,13.70
2018-08-17T21:20:22.358Z,13.60
2018-08-17T21:22:50.869Z,13.60
2018-08-17T21:25:19.311Z,13.60
2018-08-17T21:27:47.830Z,13.50
2018-08-17T21:30:16.299Z,13.50
2018-08-17T21:32:44.811Z,13.40
2018-08-17T21:35:15.407Z,13.40
2018-08-17T21:37:44.060Z,13.30
2018-08-17T21:40:18.347Z,13.30
2018-08-17T21:42:47.503Z,13.30
2018-08-17T21:45:16.658Z,13.20
2018-08-17T21:47:45.227Z,13.20
2018-08-17T21:50:16.799Z,13.20
2018-08-17T21:52:45.847Z,13.10
2018-08-17T21:55:15.056Z,13.10
2018-08-17T21:57:44.467Z,13.00
2018-08-17T22:00:22.041Z,13.00
2018-08-17T22:02:50.881Z,13.00
2018-08-17T22:05:28.691Z,12.90
2018-08-17T22:07:57.853Z,12.90
2018-08-17T22:10:27.359Z,12.80
2018-08-17T22:12:57.223Z,12.80
2018-08-17T22:15:27.984Z,12.80
2018-08-17T22:17:56.464Z,12.80
2018-08-17T22:20:25.007Z,12.80
2018-08-17T22:22:53.573Z,12.70
2018-08-17T22:25:22.073Z,12.70
2018-08-17T22:27:50.813Z,12.70
2018-08-17T22:30:21.595Z,12.60
2018-08-17T22:32:51.504Z,12.60
2018-08-17T22:35:20.077Z,12.60
2018-08-17T22:37:48.580Z,12.60
2018-08-17T22:40:17.147Z,12.60
2018-08-17T22:42:47.173Z,12.60
2018-08-17T22:45:16.333Z,12.50
2018-08-17T22:47:45.148Z,12.50
2018-08-17T22:50:14.263Z,12.40
2018-08-17T22:52:44.138Z,12.40
2018-08-17T22:55:12.654Z,12.40
2018-08-17T22:57:42.156Z,12.40
2018-08-17T23:00:20.354Z,12.30
2018-08-17T23:02:50.115Z,12.30
2018-08-17T23:05:20.143Z,12.20
2018-08-17T23:07:48.675Z,12.20
2018-08-17T23:10:19.559Z,12.20
2018-08-17T23:12:49.127Z,12.10
2018-08-17T23:15:17.755Z,12.10
2018-08-17T23:17:47.527Z,12.10
2018-08-17T23:20:16.405Z,12.10
2018-08-17T23:22:46.620Z,12.10
2018-08-17T23:25:15.380Z,12.10
2018-08-17T23:27:43.957Z,12.00
2018-08-17T23:30:12.576Z,12.10
2018-08-17T23:32:41.464Z,12.10
2018-08-17T23:35:10.018Z,12.10
2018-08-17T23:37:38.696Z,12.10
2018-08-17T23:40:08.267Z,12.00
2018-08-17T23:42:37.129Z,12.00
2018-08-17T23:45:07.135Z,12.00
2018-08-17T23:47:35.720Z,12.00
2018-08-17T23:50:04.924Z,12.00
2018-08-17T23:52:33.568Z,12.00
2018-08-17T23:55:02.104Z,12.00
2018-08-17T23:57:30.705Z,12.00
